createdAt,value
2022-08-26T00:01:04.709Z,8.90
2022-08-26T00:04:23.825Z,9.20
2022-08-26T00:07:15.203Z,8.80
2022-08-26T00:11:02.081Z,7.80
2022-08-26T00:14:17.230Z,8.50
2022-08-26T00:17:04.335Z,10.50
2022-08-26T00:19:56.808Z,9.50
2022-08-26T00:22:48.520Z,9.00
2022-08-26T00:25:21.703Z,9.00
2022-08-26T00:28:00.748Z,10.10
2022-08-26T00:30:58.123Z,8.90
2022-08-26T00:33:32.571Z,8.30
2022-08-26T00:37:01.635Z,8.90
2022-08-26T00:40:12.902Z,8.30
2022-08-26T00:42:48.164Z,7.80
2022-08-26T00:45:19.636Z,8.70
2022-08-26T00:48:03.750Z,8.80
2022-08-26T00:50:39.162Z,8.30
2022-08-26T00:53:26.037Z,8.10
2022-08-26T00:56:30.836Z,7.70
2022-08-26T00:59:05.366Z,8.30
2022-08-26T01:01:41.160Z,8.60
2022-08-26T01:04:12.513Z,9.20
2022-08-26T01:06:44.421Z,9.50
2022-08-26T01:09:18.300Z,7.80
2022-08-26T01:11:55.962Z,7.80
2022-08-26T01:14:30.537Z,7.70
2022-08-26T01:17:05.591Z,8.30
2022-08-26T01:19:49.531Z,8.20
2022-08-26T01:22:52.371Z,8.90
2022-08-26T01:25:23.835Z,7.30
2022-08-26T01:28:00.358Z,8.80
2022-08-26T01:30:32.145Z,7.40
2022-08-26T01:33:13.448Z,7.90
2022-08-26T01:35:45.463Z,7.60
2022-08-26T01:38:19.292Z,7.70
2022-08-26T01:40:52.543Z,7.50
2022-08-26T01:43:29.361Z,7.50
2022-08-26T01:48:40.023Z,7.10
2022-08-26T01:51:11.815Z,7.00
2022-08-26T01:53:46.110Z,7.60
2022-08-26T01:56:21.209Z,8.00
2022-08-26T01:58:58.391Z,7.70
2022-08-26T02:01:32.435Z,7.10
2022-08-26T02:04:56.770Z,7.20
2022-08-26T02:08:12.584Z,8.20
2022-08-26T02:11:20.646Z,7.90
2022-08-26T02:14:33.823Z,7.90
2022-08-26T02:17:11.636Z,7.80
2022-08-26T02:20:18.146Z,7.30
2022-08-26T02:23:29.827Z,7.00
2022-08-26T02:26:06.256Z,7.60
2022-08-26T02:28:55.638Z,7.40
2022-08-26T02:31:47.021Z,7.40
2022-08-26T02:34:22.476Z,7.50
2022-08-26T02:36:53.023Z,7.30
2022-08-26T02:39:30.921Z,7.30
2022-08-26T02:42:22.209Z,7.10
2022-08-26T02:44:56.285Z,7.30
2022-08-26T02:47:35.094Z,6.70
2022-08-26T02:50:09.839Z,8.30
2022-08-26T02:52:54.022Z,7.00
2022-08-26T02:55:53.357Z,6.30
2022-08-26T02:58:43.980Z,7.10
2022-08-26T03:01:35.876Z,7.10
2022-08-26T03:04:33.468Z,7.10
2022-08-26T03:07:28.805Z,6.70
2022-08-26T03:10:46.699Z,6.70
2022-08-26T03:13:32.385Z,6.90
2022-08-26T03:16:32.344Z,6.80
2022-08-26T03:19:32.639Z,7.80
2022-08-26T03:22:31.170Z,7.90
2022-08-26T03:25:33.303Z,7.00
2022-08-26T03:28:28.691Z,6.70
2022-08-26T03:31:30.544Z,7.20
2022-08-26T03:34:24.204Z,7.30
2022-08-26T03:36:58.374Z,6.80
2022-08-26T03:39:31.633Z,6.80
2022-08-26T03:42:05.838Z,6.30
2022-08-26T03:44:42.735Z,9.40
2022-08-26T03:47:17.656Z,7.10
2022-08-26T03:49:49.116Z,6.10
2022-08-26T03:52:23.098Z,6.10
2022-08-26T03:54:56.260Z,5.70
2022-08-26T03:57:31.761Z,5.70
2022-08-26T04:00:07.111Z,5.90
2022-08-26T04:02:40.988Z,6.50
2022-08-26T04:05:12.677Z,6.80
2022-08-26T04:07:48.544Z,6.30
2022-08-26T04:10:28.568Z,6.80
2022-08-26T04:13:01.301Z,5.50
2022-08-26T04:15:33.453Z,6.50
2022-08-26T04:18:04.925Z,6.30
2022-08-26T04:20:35.185Z,6.30
2022-08-26T04:23:06.331Z,5.20
2022-08-26T04:25:40.528Z,5.80
2022-08-26T04:28:14.490Z,5.50
2022-08-26T04:31:05.719Z,5.90
2022-08-26T04:33:57.820Z,7.20
2022-08-26T04:36:37.449Z,6.00
2022-08-26T04:40:25.935Z,5.50
2022-08-26T04:43:21.726Z,6.50
2022-08-26T04:46:07.396Z,6.20
2022-08-26T04:48:38.341Z,5.90
2022-08-26T04:51:11.843Z,5.50
2022-08-26T04:54:11.876Z,5.60
2022-08-26T04:57:24.868Z,6.40
2022-08-26T05:00:18.364Z,5.10
2022-08-26T05:02:50.036Z,5.50
2022-08-26T05:05:24.896Z,6.10
2022-08-26T05:08:17.200Z,6.20
2022-08-26T05:11:05.729Z,6.20
2022-08-26T05:14:17.316Z,7.00
2022-08-26T05:16:54.326Z,6.30
2022-08-26T05:19:27.953Z,5.40
2022-08-26T05:22:09.517Z,5.30
2022-08-26T05:24:43.874Z,5.40
2022-08-26T05:27:22.341Z,4.80
2022-08-26T05:29:58.658Z,6.10
2022-08-26T05:32:47.833Z,5.90
2022-08-26T05:35:24.045Z,5.30
2022-08-26T05:38:54.448Z,5.80
2022-08-26T05:41:34.614Z,8.00
2022-08-26T05:44:14.419Z,4.60
2022-08-26T05:47:45.362Z,5.30
2022-08-26T05:51:48.104Z,5.80
2022-08-26T05:55:36.354Z,5.40
2022-08-26T05:58:10.417Z,5.50
2022-08-26T06:00:44.498Z,5.20
2022-08-26T06:03:17.541Z,6.80
2022-08-26T06:06:08.368Z,4.90
2022-08-26T06:08:44.377Z,6.00
2022-08-26T06:11:58.992Z,5.50
2022-08-26T06:14:32.919Z,5.00
2022-08-26T06:17:12.082Z,5.70
2022-08-26T06:19:51.374Z,4.80
2022-08-26T06:22:56.255Z,4.80
2022-08-26T06:25:59.185Z,4.80
2022-08-26T06:29:24.305Z,4.40
2022-08-26T06:31:59.043Z,5.00
2022-08-26T06:35:25.876Z,5.30
2022-08-26T06:39:01.722Z,5.40
2022-08-26T06:42:35.110Z,4.70
2022-08-26T06:49:13.479Z,4.40
2022-08-26T06:52:11.171Z,4.60
2022-08-26T06:55:01.229Z,5.00
2022-08-26T11:20:30.328Z,5.80
2022-08-26T19:00:22.373Z,8.00
2022-08-26T19:03:28.673Z,8.30
2022-08-26T19:07:31.603Z,7.60
2022-08-26T19:17:42.246Z,6.70
2022-08-26T22:21:21.808Z,5.60
2022-08-26T22:23:58.087Z,6.40
2022-08-26T22:26:32.903Z,5.80
2022-08-26T22:29:03.777Z,5.40
